sensor_id;sensor_type;location;lat;lon;timestamp;pressure;altitude;pressure_sealevel;temperature;humidity
64841;BME280;51307;52.162;7.560;2023-08-08T00:01:38;100841.31;;;14.42;65.90
64841;BME280;51307;52.162;7.560;2023-08-08T00:04:08;100839.00;;;14.39;66.38
64841;BME280;51307;52.162;7.560;2023-08-08T00:06:34;100845.88;;;14.04;67.40
64841;BME280;51307;52.162;7.560;2023-08-08T00:08:59;100835.50;;;14.16;67.23
64841;BME280;51307;52.162;7.560;2023-08-08T00:11:25;100831.50;;;14.50;66.20
64841;BME280;51307;52.162;7.560;2023-08-08T00:13:50;100840.88;;;14.16;67.41
64841;BME280;51307;52.162;7.560;2023-08-08T00:16:16;100830.66;;;13.96;68.29
64841;BME280;51307;52.162;7.560;2023-08-08T00:18:41;100830.59;;;14.19;68.08
64841;BME280;51307;52.162;7.560;2023-08-08T00:21:07;100834.78;;;14.22;68.00
64841;BME280;51307;52.162;7.560;2023-08-08T00:23:32;100827.81;;;14.27;67.81
64841;BME280;51307;52.162;7.560;2023-08-08T00:25:58;100826.78;;;14.13;68.41
64841;BME280;51307;52.162;7.560;2023-08-08T00:28:23;100824.09;;;14.28;67.70
64841;BME280;51307;52.162;7.560;2023-08-08T00:30:49;100822.69;;;14.18;68.26
64841;BME280;51307;52.162;7.560;2023-08-08T00:33:14;100818.25;;;14.25;68.02
64841;BME280;51307;52.162;7.560;2023-08-08T00:35:40;100812.66;;;14.11;68.36
64841;BME280;51307;52.162;7.560;2023-08-08T00:38:05;100810.63;;;14.13;68.16
64841;BME280;51307;52.162;7.560;2023-08-08T00:40:31;100808.28;;;14.34;67.74
64841;BME280;51307;52.162;7.560;2023-08-08T00:42:56;100810.50;;;14.30;67.59
64841;BME280;51307;52.162;7.560;2023-08-08T00:45:22;100798.44;;;14.41;67.54
64841;BME280;51307;52.162;7.560;2023-08-08T00:47:47;100796.69;;;14.48;67.56
64841;BME280;51307;52.162;7.560;2023-08-08T00:50:14;100801.50;;;14.53;67.34
64841;BME280;51307;52.162;7.560;2023-08-08T00:52:41;100805.63;;;14.10;68.99
64841;BME280;51307;52.162;7.560;2023-08-08T00:55:07;100805.56;;;14.19;68.39
64841;BME280;51307;52.162;7.560;2023-08-08T00:57:34;100806.66;;;14.09;69.12
64841;BME280;51307;52.162;7.560;2023-08-08T01:00:00;100801.03;;;14.34;68.12
64841;BME280;51307;52.162;7.560;2023-08-08T01:02:26;100798.91;;;14.44;68.01
64841;BME280;51307;52.162;7.560;2023-08-08T01:04:52;100804.69;;;14.03;68.94
64841;BME280;51307;52.162;7.560;2023-08-08T01:07:31;100814.13;;;14.37;67.79
64841;BME280;51307;52.162;7.560;2023-08-08T01:10:22;100789.59;;;14.17;68.31
64841;BME280;51307;52.162;7.560;2023-08-08T01:12:59;100797.91;;;14.31;67.93
64841;BME280;51307;52.162;7.560;2023-08-08T01:15:27;100796.38;;;14.28;68.05
64841;BME280;51307;52.162;7.560;2023-08-08T01:17:54;100794.81;;;14.34;67.99
64841;BME280;51307;52.162;7.560;2023-08-08T01:20:21;100795.66;;;14.34;68.19
64841;BME280;51307;52.162;7.560;2023-08-08T01:25:23;100797.75;;;14.09;68.91
64841;BME280;51307;52.162;7.560;2023-08-08T01:27:48;100790.00;;;14.44;67.68
64841;BME280;51307;52.162;7.560;2023-08-08T01:30:14;100784.88;;;14.34;67.95
64841;BME280;51307;52.162;7.560;2023-08-08T01:32:40;100785.97;;;14.25;68.04
64841;BME280;51307;52.162;7.560;2023-08-08T01:35:06;100780.31;;;14.20;67.89
64841;BME280;51307;52.162;7.560;2023-08-08T01:37:42;100782.81;;;14.06;68.65
64841;BME280;51307;52.162;7.560;2023-08-08T01:40:13;100774.66;;;14.15;68.65
64841;BME280;51307;52.162;7.560;2023-08-08T01:42:43;100776.13;;;14.17;67.98
64841;BME280;51307;52.162;7.560;2023-08-08T01:45:11;100772.69;;;14.23;68.01
64841;BME280;51307;52.162;7.560;2023-08-08T01:47:37;100774.94;;;14.20;67.93
64841;BME280;51307;52.162;7.560;2023-08-08T01:50:02;100773.91;;;14.21;68.05
64841;BME280;51307;52.162;7.560;2023-08-08T01:52:28;100767.44;;;14.30;67.37
64841;BME280;51307;52.162;7.560;2023-08-08T01:54:53;100770.91;;;14.16;67.52
64841;BME280;51307;52.162;7.560;2023-08-08T01:57:19;100767.31;;;14.23;67.64
64841;BME280;51307;52.162;7.560;2023-08-08T01:59:47;100763.00;;;14.37;67.16
64841;BME280;51307;52.162;7.560;2023-08-08T02:02:13;100763.97;;;14.21;67.42
64841;BME280;51307;52.162;7.560;2023-08-08T02:04:40;100762.31;;;14.05;67.80
64841;BME280;51307;52.162;7.560;2023-08-08T02:07:05;100760.59;;;13.89;68.29
64841;BME280;51307;52.162;7.560;2023-08-08T02:09:31;100761.06;;;13.78;68.55
64841;BME280;51307;52.162;7.560;2023-08-08T02:11:56;100758.97;;;13.65;69.16
64841;BME280;51307;52.162;7.560;2023-08-08T02:14:22;100749.28;;;13.94;68.33
64841;BME280;51307;52.162;7.560;2023-08-08T02:16:47;100751.44;;;13.99;68.29
64841;BME280;51307;52.162;7.560;2023-08-08T02:19:13;100743.47;;;14.05;68.24
64841;BME280;51307;52.162;7.560;2023-08-08T02:21:39;100747.44;;;13.79;69.08
64841;BME280;51307;52.162;7.560;2023-08-08T02:24:05;100747.63;;;13.93;68.81
64841;BME280;51307;52.162;7.560;2023-08-08T02:26:31;100746.88;;;14.14;67.95
64841;BME280;51307;52.162;7.560;2023-08-08T02:28:56;100748.81;;;13.75;69.22
64841;BME280;51307;52.162;7.560;2023-08-08T02:31:21;100747.91;;;13.98;68.72
64841;BME280;51307;52.162;7.560;2023-08-08T02:33:48;100743.19;;;14.00;68.75
64841;BME280;51307;52.162;7.560;2023-08-08T02:36:14;100745.78;;;13.93;69.21
64841;BME280;51307;52.162;7.560;2023-08-08T02:38:40;100737.63;;;14.17;68.79
64841;BME280;51307;52.162;7.560;2023-08-08T02:41:05;100739.19;;;13.96;69.84
64841;BME280;51307;52.162;7.560;2023-08-08T02:43:31;100745.78;;;14.08;69.55
64841;BME280;51307;52.162;7.560;2023-08-08T02:45:57;100739.00;;;13.83;70.52
64841;BME280;51307;52.162;7.560;2023-08-08T02:48:22;100743.47;;;14.05;69.78
64841;BME280;51307;52.162;7.560;2023-08-08T02:50:48;100736.28;;;13.83;71.11
64841;BME280;51307;52.162;7.560;2023-08-08T02:53:13;100733.53;;;14.21;70.19
64841;BME280;51307;52.162;7.560;2023-08-08T02:55:39;100727.31;;;14.05;70.34
64841;BME280;51307;52.162;7.560;2023-08-08T02:58:04;100731.69;;;14.06;70.56
64841;BME280;51307;52.162;7.560;2023-08-08T03:00:30;100721.38;;;13.95;71.18
64841;BME280;51307;52.162;7.560;2023-08-08T03:02:55;100728.03;;;13.69;72.50
64841;BME280;51307;52.162;7.560;2023-08-08T03:05:21;100724.16;;;14.02;71.64
64841;BME280;51307;52.162;7.560;2023-08-08T03:07:47;100726.66;;;13.88;71.80
64841;BME280;51307;52.162;7.560;2023-08-08T03:10:12;100718.78;;;13.87;71.95
64841;BME280;51307;52.162;7.560;2023-08-08T03:12:38;100727.72;;;14.02;71.79
64841;BME280;51307;52.162;7.560;2023-08-08T03:15:05;100730.00;;;13.90;72.14
64841;BME280;51307;52.162;7.560;2023-08-08T03:17:31;100726.47;;;13.90;72.28
64841;BME280;51307;52.162;7.560;2023-08-08T03:19:56;100728.91;;;14.00;71.83
64841;BME280;51307;52.162;7.560;2023-08-08T03:22:22;100731.47;;;13.78;72.96
64841;BME280;51307;52.162;7.560;2023-08-08T03:24:47;100720.88;;;13.76;73.35
64841;BME280;51307;52.162;7.560;2023-08-08T03:27:13;100718.50;;;13.96;72.71
64841;BME280;51307;52.162;7.560;2023-08-08T03:29:38;100709.41;;;14.27;71.62
64841;BME280;51307;52.162;7.560;2023-08-08T03:32:04;100716.56;;;14.05;72.32
64841;BME280;51307;52.162;7.560;2023-08-08T03:34:30;100708.03;;;14.17;72.29
64841;BME280;51307;52.162;7.560;2023-08-08T03:36:56;100709.69;;;13.88;73.35
64841;BME280;51307;52.162;7.560;2023-08-08T03:39:21;100706.34;;;13.86;73.33
64841;BME280;51307;52.162;7.560;2023-08-08T03:41:47;100700.03;;;14.23;72.01
64841;BME280;51307;52.162;7.560;2023-08-08T03:44:12;100698.75;;;14.19;72.11
64841;BME280;51307;52.162;7.560;2023-08-08T03:46:38;100706.53;;;13.99;72.85
64841;BME280;51307;52.162;7.560;2023-08-08T03:49:03;100706.44;;;14.07;72.51
64841;BME280;51307;52.162;7.560;2023-08-08T03:51:29;100702.94;;;13.92;72.74
64841;BME280;51307;52.162;7.560;2023-08-08T03:53:55;100699.03;;;13.94;72.75
64841;BME280;51307;52.162;7.560;2023-08-08T03:56:20;100700.88;;;13.94;73.02
64841;BME280;51307;52.162;7.560;2023-08-08T03:58:46;100706.72;;;13.83;73.06
64841;BME280;51307;52.162;7.560;2023-08-08T04:01:11;100698.47;;;13.84;73.40
64841;BME280;51307;52.162;7.560;2023-08-08T04:03:37;100698.56;;;13.91;73.20
64841;BME280;51307;52.162;7.560;2023-08-08T04:06:03;100699.31;;;13.85;73.42
64841;BME280;51307;52.162;7.560;2023-08-08T04:08:28;100699.94;;;14.02;72.65
64841;BME280;51307;52.162;7.560;2023-08-08T04:10:54;100694.84;;;13.92;73.01
64841;BME280;51307;52.162;7.560;2023-08-08T04:13:20;100689.06;;;13.65;73.86
64841;BME280;51307;52.162;7.560;2023-08-08T04:15:46;100692.06;;;14.00;72.66
64841;BME280;51307;52.162;7.560;2023-08-08T04:18:12;100683.34;;;13.98;72.49
64841;BME280;51307;52.162;7.560;2023-08-08T04:20:37;100686.59;;;13.78;73.11
64841;BME280;51307;52.162;7.560;2023-08-08T04:23:03;100684.63;;;13.72;74.02
64841;BME280;51307;52.162;7.560;2023-08-08T04:25:29;100683.34;;;13.98;72.81
64841;BME280;51307;52.162;7.560;2023-08-08T04:27:55;100681.22;;;13.78;73.95
64841;BME280;51307;52.162;7.560;2023-08-08T04:30:20;100678.16;;;13.96;73.24
64841;BME280;51307;52.162;7.560;2023-08-08T04:32:46;100692.06;;;14.00;73.29
64841;BME280;51307;52.162;7.560;2023-08-08T04:35:12;100691.53;;;14.20;72.59
64841;BME280;51307;52.162;7.560;2023-08-08T04:37:37;100691.16;;;14.08;73.00
64841;BME280;51307;52.162;7.560;2023-08-08T04:40:03;100695.97;;;14.12;73.12
64841;BME280;51307;52.162;7.560;2023-08-08T04:42:29;100702.00;;;13.85;74.09
64841;BME280;51307;52.162;7.560;2023-08-08T04:44:55;100698.47;;;13.99;73.86
64841;BME280;51307;52.162;7.560;2023-08-08T04:47:20;100695.84;;;14.21;72.97
64841;BME280;51307;52.162;7.560;2023-08-08T04:49:46;100699.84;;;13.95;73.94
64841;BME280;51307;52.162;7.560;2023-08-08T04:52:12;100696.44;;;14.16;73.40
64841;BME280;51307;52.162;7.560;2023-08-08T04:54:37;100691.97;;;13.93;74.46
64841;BME280;51307;52.162;7.560;2023-08-08T04:57:03;100689.38;;;14.00;73.59
64841;BME280;51307;52.162;7.560;2023-08-08T04:59:28;100687.59;;;13.92;74.42
64841;BME280;51307;52.162;7.560;2023-08-08T05:01:54;100690.88;;;14.03;73.92
64841;BME280;51307;52.162;7.560;2023-08-08T05:04:19;100684.00;;;14.00;74.02
64841;BME280;51307;52.162;7.560;2023-08-08T05:06:45;100688.38;;;13.86;74.48
64841;BME280;51307;52.162;7.560;2023-08-08T05:09:11;100685.38;;;14.11;74.06
64841;BME280;51307;52.162;7.560;2023-08-08T05:11:37;100684.38;;;13.97;74.39
64841;BME280;51307;52.162;7.560;2023-08-08T05:14:02;100680.50;;;13.85;74.99
64841;BME280;51307;52.162;7.560;2023-08-08T05:16:28;100684.81;;;14.01;74.48
64841;BME280;51307;52.162;7.560;2023-08-08T05:18:54;100678.53;;;13.93;74.08
64841;BME280;51307;52.162;7.560;2023-08-08T05:21:21;100671.28;;;13.94;74.64
64841;BME280;51307;52.162;7.560;2023-08-08T05:23:46;100675.19;;;14.06;73.98
64841;BME280;51307;52.162;7.560;2023-08-08T05:26:13;100671.63;;;14.21;73.85
64841;BME280;51307;52.162;7.560;2023-08-08T05:28:39;100673.34;;;14.07;73.83
64841;BME280;51307;52.162;7.560;2023-08-08T05:31:04;100671.28;;;13.94;74.27
64841;BME280;51307;52.162;7.560;2023-08-08T05:33:30;100670.28;;;13.95;73.74
64841;BME280;51307;52.162;7.560;2023-08-08T05:35:55;100675.53;;;14.18;73.27
64841;BME280;51307;52.162;7.560;2023-08-08T05:38:20;100675.84;;;14.08;73.25
64841;BME280;51307;52.162;7.560;2023-08-08T05:40:46;100675.19;;;14.36;72.45
64841;BME280;51307;52.162;7.560;2023-08-08T05:43:11;100683.16;;;14.15;73.19
64841;BME280;51307;52.162;7.560;2023-08-08T05:45:42;100669.72;;;14.15;73.08
64841;BME280;51307;52.162;7.560;2023-08-08T05:48:07;100670.56;;;14.00;74.01
64841;BME280;51307;52.162;7.560;2023-08-08T05:50:37;100676.31;;;14.12;73.25
64841;BME280;51307;52.162;7.560;2023-08-08T05:53:03;100672.84;;;14.03;74.13
64841;BME280;51307;52.162;7.560;2023-08-08T05:55:28;100673.25;;;14.00;73.95
64841;BME280;51307;52.162;7.560;2023-08-08T05:57:54;100666.47;;;14.34;73.12
64841;BME280;51307;52.162;7.560;2023-08-08T06:00:20;100673.81;;;14.10;73.98
64841;BME280;51307;52.162;7.560;2023-08-08T06:02:45;100683.97;;;14.45;73.01
64841;BME280;51307;52.162;7.560;2023-08-08T06:05:11;100675.94;;;14.00;74.42
64841;BME280;51307;52.162;7.560;2023-08-08T06:07:37;100675.59;;;14.33;73.18
64841;BME280;51307;52.162;7.560;2023-08-08T06:10:04;100673.91;;;14.32;72.89
64841;BME280;51307;52.162;7.560;2023-08-08T06:12:29;100675.56;;;14.03;74.69
64841;BME280;51307;52.162;7.560;2023-08-08T06:14:55;100672.69;;;14.35;73.29
64841;BME280;51307;52.162;7.560;2023-08-08T06:17:20;100678.94;;;14.57;72.63
64841;BME280;51307;52.162;7.560;2023-08-08T06:19:49;100678.28;;;14.33;73.24
64841;BME280;51307;52.162;7.560;2023-08-08T06:22:15;100679.44;;;14.45;73.29
64841;BME280;51307;52.162;7.560;2023-08-08T06:24:41;100678.28;;;14.33;73.31
64841;BME280;51307;52.162;7.560;2023-08-08T06:27:06;100694.03;;;14.21;74.03
64841;BME280;51307;52.162;7.560;2023-08-08T06:29:32;100675.94;;;14.30;73.98
64841;BME280;51307;52.162;7.560;2023-08-08T06:31:57;100673.28;;;14.52;73.18
64841;BME280;51307;52.162;7.560;2023-08-08T06:34:23;100680.66;;;14.43;73.60
64841;BME280;51307;52.162;7.560;2023-08-08T06:36:48;100676.63;;;14.54;73.01
64841;BME280;51307;52.162;7.560;2023-08-08T06:39:14;100671.59;;;14.66;72.58
64841;BME280;51307;52.162;7.560;2023-08-08T06:41:40;100680.75;;;14.50;73.07
64841;BME280;51307;52.162;7.560;2023-08-08T06:44:07;100688.03;;;14.56;73.31
64841;BME280;51307;52.162;7.560;2023-08-08T06:46:33;100683.69;;;14.55;73.51
64841;BME280;51307;52.162;7.560;2023-08-08T06:48:58;100684.69;;;14.69;73.38
64841;BME280;51307;52.162;7.560;2023-08-08T06:51:25;100686.25;;;15.00;72.35
64841;BME280;51307;52.162;7.560;2023-08-08T06:53:51;100687.19;;;14.92;72.60
64841;BME280;51307;52.162;7.560;2023-08-08T06:56:18;100690.00;;;14.84;72.58
64841;BME280;51307;52.162;7.560;2023-08-08T06:58:43;100696.06;;;14.86;72.60
64841;BME280;51307;52.162;7.560;2023-08-08T07:01:09;100693.53;;;14.84;72.57
64841;BME280;51307;52.162;7.560;2023-08-08T07:03:35;100694.78;;;14.67;72.36
64841;BME280;51307;52.162;7.560;2023-08-08T07:06:02;100680.13;;;14.91;71.65
64841;BME280;51307;52.162;7.560;2023-08-08T07:08:28;100689.00;;;15.06;71.36
64841;BME280;51307;52.162;7.560;2023-08-08T07:10:56;100688.75;;;15.01;71.12
64841;BME280;51307;52.162;7.560;2023-08-08T07:13:21;100691.03;;;15.04;71.25
64841;BME280;51307;52.162;7.560;2023-08-08T07:15:47;100692.69;;;15.27;69.96
64841;BME280;51307;52.162;7.560;2023-08-08T07:18:12;100695.28;;;15.13;69.80
64841;BME280;51307;52.162;7.560;2023-08-08T07:20:38;100688.53;;;15.03;70.13
64841;BME280;51307;52.162;7.560;2023-08-08T07:23:04;100697.34;;;15.11;70.70
64841;BME280;51307;52.162;7.560;2023-08-08T07:25:30;100696.69;;;15.31;69.81
64841;BME280;51307;52.162;7.560;2023-08-08T07:27:55;100693.03;;;15.17;69.87
64841;BME280;51307;52.162;7.560;2023-08-08T07:30:21;100701.28;;;14.72;71.23
64841;BME280;51307;52.162;7.560;2023-08-08T07:32:47;100699.69;;;14.78;70.65
64841;BME280;51307;52.162;7.560;2023-08-08T07:35:12;100702.31;;;14.71;70.63
64841;BME280;51307;52.162;7.560;2023-08-08T07:37:38;100681.41;;;14.95;70.32
64841;BME280;51307;52.162;7.560;2023-08-08T07:40:14;100689.00;;;15.06;69.56
64841;BME280;51307;52.162;7.560;2023-08-08T07:42:39;100678.91;;;15.15;69.25
64841;BME280;51307;52.162;7.560;2023-08-08T07:45:05;100693.09;;;15.24;69.42
64841;BME280;51307;52.162;7.560;2023-08-08T07:47:31;100689.56;;;15.23;69.45
64841;BME280;51307;52.162;7.560;2023-08-08T07:49:56;100691.38;;;15.16;68.88
64841;BME280;51307;52.162;7.560;2023-08-08T07:52:22;100674.09;;;15.32;68.16
64841;BME280;51307;52.162;7.560;2023-08-08T07:54:48;100670.88;;;15.22;68.31
64841;BME280;51307;52.162;7.560;2023-08-08T07:57:14;100668.97;;;15.16;68.86
64841;BME280;51307;52.162;7.560;2023-08-08T07:59:39;100673.03;;;15.05;68.95
64841;BME280;51307;52.162;7.560;2023-08-08T08:02:05;100666.44;;;15.57;67.37
64841;BME280;51307;52.162;7.560;2023-08-08T08:04:31;100663.31;;;15.32;65.31
64841;BME280;51307;52.162;7.560;2023-08-08T08:06:56;100664.88;;;15.20;64.37
64841;BME280;51307;52.162;7.560;2023-08-08T08:09:22;100664.31;;;15.31;64.17
64841;BME280;51307;52.162;7.560;2023-08-08T08:11:47;100670.50;;;15.46;64.63
64841;BME280;51307;52.162;7.560;2023-08-08T08:14:13;100665.50;;;15.43;63.64
64841;BME280;51307;52.162;7.560;2023-08-08T08:16:38;100656.78;;;15.41;62.81
64841;BME280;51307;52.162;7.560;2023-08-08T08:19:04;100663.13;;;15.62;63.26
64841;BME280;51307;52.162;7.560;2023-08-08T08:21:29;100664.91;;;15.76;62.84
64841;BME280;51307;52.162;7.560;2023-08-08T08:23:55;100669.38;;;15.62;62.96
64841;BME280;51307;52.162;7.560;2023-08-08T08:26:20;100657.03;;;15.46;62.35
64841;BME280;51307;52.162;7.560;2023-08-08T08:28:46;100672.47;;;15.59;62.33
64841;BME280;51307;52.162;7.560;2023-08-08T08:31:11;100661.41;;;15.54;61.53
64841;BME280;51307;52.162;7.560;2023-08-08T08:33:37;100659.28;;;15.43;60.29
64841;BME280;51307;52.162;7.560;2023-08-08T08:36:02;100664.50;;;15.79;60.60
64841;BME280;51307;52.162;7.560;2023-08-08T08:38:28;100671.16;;;15.84;60.14
64841;BME280;51307;52.162;7.560;2023-08-08T08:40:56;100669.84;;;15.73;60.90
64841;BME280;51307;52.162;7.560;2023-08-08T08:43:22;100671.59;;;15.52;60.49
64841;BME280;51307;52.162;7.560;2023-08-08T08:45:52;100672.84;;;15.56;60.97
64841;BME280;51307;52.162;7.560;2023-08-08T08:48:18;100662.69;;;15.87;60.59
64841;BME280;51307;52.162;7.560;2023-08-08T08:50:47;100664.13;;;15.83;61.17
64841;BME280;51307;52.162;7.560;2023-08-08T08:53:15;100662.53;;;15.95;60.76
64841;BME280;51307;52.162;7.560;2023-08-08T08:55:41;100658.97;;;15.94;60.09
64841;BME280;51307;52.162;7.560;2023-08-08T08:58:08;100652.63;;;15.74;59.32
64841;BME280;51307;52.162;7.560;2023-08-08T09:00:35;100660.69;;;16.02;59.44
64841;BME280;51307;52.162;7.560;2023-08-08T09:03:03;100646.75;;;15.99;59.64
64841;BME280;51307;52.162;7.560;2023-08-08T09:05:30;100651.97;;;16.00;59.72
64841;BME280;51307;52.162;7.560;2023-08-08T09:07:56;100655.22;;;16.37;59.72
64841;BME280;51307;52.162;7.560;2023-08-08T09:10:21;100648.38;;;16.41;59.36
64841;BME280;51307;52.162;7.560;2023-08-08T09:12:49;100636.94;;;16.26;58.99
64841;BME280;51307;52.162;7.560;2023-08-08T09:15:15;100651.91;;;15.87;58.40
64841;BME280;51307;52.162;7.560;2023-08-08T09:17:42;100640.22;;;16.21;58.68
64841;BME280;51307;52.162;7.560;2023-08-08T09:20:09;100647.94;;;16.38;58.35
64841;BME280;51307;52.162;7.560;2023-08-08T09:22:36;100644.19;;;16.32;56.50
64841;BME280;51307;52.162;7.560;2023-08-08T09:25:03;100646.66;;;16.27;56.16
64841;BME280;51307;52.162;7.560;2023-08-08T09:27:29;100636.44;;;16.64;55.62
64841;BME280;51307;52.162;7.560;2023-08-08T09:29:55;100637.56;;;16.35;54.85
64841;BME280;51307;52.162;7.560;2023-08-08T09:32:20;100638.06;;;16.52;55.43
64841;BME280;51307;52.162;7.560;2023-08-08T09:34:48;100625.63;;;16.57;55.32
64841;BME280;51307;52.162;7.560;2023-08-08T09:37:13;100632.09;;;16.70;54.07
64841;BME280;51307;52.162;7.560;2023-08-08T09:39:42;100622.97;;;16.97;54.79
64841;BME280;51307;52.162;7.560;2023-08-08T09:42:08;100618.41;;;16.98;54.53
64841;BME280;51307;52.162;7.560;2023-08-08T09:44:39;100618.59;;;16.90;52.94
64841;BME280;51307;52.162;7.560;2023-08-08T09:47:05;100630.03;;;16.78;53.71
64841;BME280;51307;52.162;7.560;2023-08-08T09:49:32;100638.97;;;16.92;54.05
64841;BME280;51307;52.162;7.560;2023-08-08T09:52:00;100643.53;;;16.72;53.30
64841;BME280;51307;52.162;7.560;2023-08-08T09:54:26;100652.47;;;16.79;52.76
64841;BME280;51307;52.162;7.560;2023-08-08T09:56:53;100636.50;;;16.97;52.44
64841;BME280;51307;52.162;7.560;2023-08-08T09:59:19;100633.34;;;16.87;52.55
64841;BME280;51307;52.162;7.560;2023-08-08T10:01:46;100637.09;;;16.93;53.01
64841;BME280;51307;52.162;7.560;2023-08-08T10:04:12;100650.59;;;16.79;51.96
64841;BME280;51307;52.162;7.560;2023-08-08T10:06:38;100642.66;;;16.64;52.23
64841;BME280;51307;52.162;7.560;2023-08-08T10:09:04;100639.78;;;16.66;52.85
64841;BME280;51307;52.162;7.560;2023-08-08T10:11:34;100646.84;;;16.80;52.90
64841;BME280;51307;52.162;7.560;2023-08-08T10:14:02;100645.13;;;16.46;52.45
64841;BME280;51307;52.162;7.560;2023-08-08T10:16:32;100676.47;;;16.47;52.66
64841;BME280;51307;52.162;7.560;2023-08-08T10:19:01;100641.66;;;16.79;52.37
64841;BME280;51307;52.162;7.560;2023-08-08T10:21:27;100656.16;;;16.64;52.77
64841;BME280;51307;52.162;7.560;2023-08-08T10:24:05;100640.19;;;16.70;52.36
64841;BME280;51307;52.162;7.560;2023-08-08T10:26:33;100643.75;;;17.04;52.49
64841;BME280;51307;52.162;7.560;2023-08-08T10:29:00;100625.06;;;17.09;50.88
64841;BME280;51307;52.162;7.560;2023-08-08T10:31:33;100633.59;;;16.99;51.13
64841;BME280;51307;52.162;7.560;2023-08-08T10:34:04;100636.28;;;17.26;50.88
64841;BME280;51307;52.162;7.560;2023-08-08T10:36:50;100631.69;;;17.06;51.11
64841;BME280;51307;52.162;7.560;2023-08-08T10:39:18;100627.53;;;17.10;51.02
64841;BME280;51307;52.162;7.560;2023-08-08T10:41:53;100627.53;;;17.24;50.69
64841;BME280;51307;52.162;7.560;2023-08-08T10:44:23;100641.91;;;16.97;50.78
64841;BME280;51307;52.162;7.560;2023-08-08T10:46:51;100636.94;;;17.14;51.39
64841;BME280;51307;52.162;7.560;2023-08-08T10:49:18;100645.03;;;16.94;52.02
64841;BME280;51307;52.162;7.560;2023-08-08T10:51:46;100654.09;;;16.60;52.90
64841;BME280;51307;52.162;7.560;2023-08-08T10:54:14;100652.88;;;16.69;53.12
64841;BME280;51307;52.162;7.560;2023-08-08T10:56:47;100662.22;;;16.67;52.78
64841;BME280;51307;52.162;7.560;2023-08-08T10:59:19;100642.09;;;16.83;52.71
64841;BME280;51307;52.162;7.560;2023-08-08T11:01:46;100655.38;;;16.84;52.10
64841;BME280;51307;52.162;7.560;2023-08-08T11:04:13;100648.50;;;16.68;52.16
64841;BME280;51307;52.162;7.560;2023-08-08T11:06:39;100653.91;;;16.68;52.54
64841;BME280;51307;52.162;7.560;2023-08-08T11:09:06;100662.03;;;16.88;52.63
64841;BME280;51307;52.162;7.560;2023-08-08T11:11:39;100653.72;;;16.83;52.46
64841;BME280;51307;52.162;7.560;2023-08-08T11:14:17;100641.69;;;17.12;52.17
64841;BME280;51307;52.162;7.560;2023-08-08T11:16:54;100637.09;;;16.93;51.24
64841;BME280;51307;52.162;7.560;2023-08-08T11:19:21;100661.81;;;16.83;51.52
64841;BME280;51307;52.162;7.560;2023-08-08T11:21:48;100653.06;;;16.61;51.35
64841;BME280;51307;52.162;7.560;2023-08-08T11:24:14;100654.53;;;16.63;51.84
64841;BME280;51307;52.162;7.560;2023-08-08T11:26:41;100653.31;;;16.93;51.18
64841;BME280;51307;52.162;7.560;2023-08-08T11:29:09;100644.72;;;16.56;51.12
64841;BME280;51307;52.162;7.560;2023-08-08T11:31:35;100635.22;;;16.80;51.47
64841;BME280;51307;52.162;7.560;2023-08-08T11:34:01;100652.41;;;16.59;51.74
64841;BME280;51307;52.162;7.560;2023-08-08T11:36:34;100650.34;;;16.54;52.29
64841;BME280;51307;52.162;7.560;2023-08-08T11:39:02;100651.16;;;16.55;53.55
64841;BME280;51307;52.162;7.560;2023-08-08T11:41:36;100658.28;;;16.21;55.42
64841;BME280;51307;52.162;7.560;2023-08-08T11:44:03;100656.97;;;16.03;56.52
64841;BME280;51307;52.162;7.560;2023-08-08T11:46:29;100659.19;;;15.93;55.72
64841;BME280;51307;52.162;7.560;2023-08-08T11:49:05;100641.41;;;16.12;55.13
64841;BME280;51307;52.162;7.560;2023-08-08T11:51:33;100641.19;;;16.62;54.02
64841;BME280;51307;52.162;7.560;2023-08-08T11:54:02;100640.13;;;16.50;53.84
64841;BME280;51307;52.162;7.560;2023-08-08T11:56:28;100634.22;;;16.94;52.46
64841;BME280;51307;52.162;7.560;2023-08-08T11:58:54;100643.31;;;16.67;52.17
64841;BME280;51307;52.162;7.560;2023-08-08T12:01:22;100635.03;;;16.82;51.50
64841;BME280;51307;52.162;7.560;2023-08-08T12:03:48;100643.94;;;16.75;51.40
64841;BME280;51307;52.162;7.560;2023-08-08T12:06:15;100650.78;;;16.71;50.56
64841;BME280;51307;52.162;7.560;2023-08-08T12:08:42;100660.59;;;16.92;51.40
64841;BME280;51307;52.162;7.560;2023-08-08T12:11:09;100694.75;;;16.45;54.31
64841;BME280;51307;52.162;7.560;2023-08-08T12:13:40;100680.06;;;16.12;56.17
64841;BME280;51307;52.162;7.560;2023-08-08T12:16:09;100652.59;;;16.51;55.50
64841;BME280;51307;52.162;7.560;2023-08-08T12:18:37;100654.91;;;16.12;56.27
64841;BME280;51307;52.162;7.560;2023-08-08T12:21:04;100652.31;;;16.39;56.95
64841;BME280;51307;52.162;7.560;2023-08-08T12:23:30;100644.16;;;16.19;57.00
64841;BME280;51307;52.162;7.560;2023-08-08T12:25:57;100645.06;;;16.33;56.61
64841;BME280;51307;52.162;7.560;2023-08-08T12:28:23;100642.72;;;16.23;57.20
64841;BME280;51307;52.162;7.560;2023-08-08T12:30:48;100647.53;;;16.34;57.26
64841;BME280;51307;52.162;7.560;2023-08-08T12:33:14;100643.59;;;16.30;57.68
64841;BME280;51307;52.162;7.560;2023-08-08T12:35:39;100642.81;;;16.43;56.64
64841;BME280;51307;52.162;7.560;2023-08-08T12:38:05;100634.78;;;16.63;57.78
64841;BME280;51307;52.162;7.560;2023-08-08T12:40:33;100627.28;;;16.52;57.44
64841;BME280;51307;52.162;7.560;2023-08-08T12:42:59;100624.22;;;16.82;56.27
64841;BME280;51307;52.162;7.560;2023-08-08T12:45:25;100624.22;;;17.02;55.11
64841;BME280;51307;52.162;7.560;2023-08-08T12:47:50;100627.97;;;16.94;53.82
64841;BME280;51307;52.162;7.560;2023-08-08T12:50:16;100617.97;;;17.21;53.89